createdAt,value
2022-11-28T00:01:25.211Z,3.80
2022-11-28T00:03:52.661Z,3.80
2022-11-28T00:06:20.547Z,3.80
2022-11-28T00:08:47.885Z,3.70
2022-11-28T00:11:16.871Z,3.70
2022-11-28T00:13:45.599Z,3.70
2022-11-28T00:16:20.525Z,3.70
2022-11-28T00:18:52.314Z,3.60
2022-11-28T00:21:20.453Z,3.60
2022-11-28T00:23:48.545Z,3.60
2022-11-28T00:26:27.898Z,3.50
2022-11-28T00:28:56.060Z,3.40
2022-11-28T00:31:26.297Z,3.40
2022-11-28T00:33:54.158Z,3.40
2022-11-28T00:36:22.098Z,3.30
2022-11-28T00:38:50.110Z,3.30
2022-11-28T00:41:28.792Z,3.30
2022-11-28T00:43:56.079Z,3.20
2022-11-28T00:46:24.401Z,3.20
2022-11-28T00:48:51.888Z,3.20
2022-11-28T00:51:27.777Z,3.10
2022-11-28T00:53:58.020Z,3.10
2022-11-28T00:56:28.730Z,3.10
2022-11-28T00:58:56.256Z,3.00
2022-11-28T01:01:34.005Z,3.00
2022-11-28T01:04:03.833Z,3.00
2022-11-28T01:06:40.252Z,2.90
2022-11-28T01:09:27.132Z,2.90
2022-11-28T01:11:55.205Z,2.80
2022-11-28T01:14:24.045Z,2.70
2022-11-28T01:16:51.298Z,2.70
2022-11-28T01:19:18.456Z,2.60
2022-11-28T01:21:45.675Z,2.50
2022-11-28T01:24:13.170Z,2.50
2022-11-28T01:26:40.663Z,2.50
2022-11-28T01:29:08.452Z,2.50
2022-11-28T01:31:35.801Z,2.40
2022-11-28T01:34:03.017Z,2.30
2022-11-28T01:36:30.109Z,2.30
2022-11-28T01:38:57.146Z,2.30
2022-11-28T01:41:26.603Z,2.30
2022-11-28T01:44:12.370Z,2.20
2022-11-28T01:46:39.628Z,2.20
2022-11-28T01:49:22.533Z,2.10
2022-11-28T01:51:54.639Z,2.00
2022-11-28T01:54:23.956Z,2.00
2022-11-28T01:57:01.723Z,1.90
2022-11-28T01:59:33.604Z,2.00
2022-11-28T02:02:00.897Z,2.00
2022-11-28T02:04:28.496Z,1.90
2022-11-28T02:06:55.976Z,1.90
2022-11-28T02:09:22.995Z,1.90
2022-11-28T02:12:28.352Z,1.90
2022-11-28T02:14:55.284Z,2.00
2022-11-28T02:18:07.114Z,2.00
2022-11-28T02:20:46.079Z,2.00
2022-11-28T02:23:19.434Z,2.00
2022-11-28T02:25:58.233Z,2.10
2022-11-28T02:28:29.738Z,2.00
2022-11-28T02:31:05.642Z,2.10
2022-11-28T02:33:37.305Z,2.10
2022-11-28T02:36:21.029Z,2.10
2022-11-28T02:39:15.030Z,2.10
2022-11-28T02:41:57.806Z,2.10
2022-11-28T02:44:33.543Z,2.10
2022-11-28T02:47:07.618Z,2.10
2022-11-28T02:49:38.441Z,2.10
2022-11-28T02:52:18.053Z,2.10
2022-11-28T02:54:46.585Z,2.10
2022-11-28T02:57:13.665Z,2.10
2022-11-28T02:59:43.579Z,2.10
2022-11-28T03:02:30.477Z,2.10
2022-11-28T03:05:16.574Z,2.10
2022-11-28T03:08:08.445Z,2.10
2022-11-28T03:11:02.487Z,2.00
2022-11-28T03:13:41.443Z,2.00
2022-11-28T03:16:14.923Z,2.00
2022-11-28T03:18:49.523Z,2.00
2022-11-28T03:21:51.165Z,2.00
2022-11-28T03:24:36.431Z,2.00
2022-11-28T03:27:18.319Z,2.00
2022-11-28T03:29:57.910Z,2.00
2022-11-28T03:32:37.837Z,2.00
2022-11-28T03:35:10.716Z,2.10
2022-11-28T03:37:52.361Z,2.00
2022-11-28T03:40:25.020Z,2.00
2022-11-28T03:43:00.555Z,2.00
2022-11-28T03:45:32.647Z,2.00
2022-11-28T03:48:05.020Z,2.00
2022-11-28T03:50:38.013Z,2.00
2022-11-28T03:53:11.377Z,1.90
2022-11-28T03:55:44.018Z,1.90
2022-11-28T03:58:19.852Z,1.90
2022-11-28T04:00:58.659Z,1.90
2022-11-28T04:04:15.134Z,1.90
2022-11-28T04:06:48.095Z,1.80
2022-11-28T04:09:19.082Z,1.80
2022-11-28T04:11:54.437Z,1.80
2022-11-28T04:14:29.614Z,1.80
2022-11-28T04:17:19.703Z,1.70
2022-11-28T04:19:59.355Z,1.80
2022-11-28T04:22:33.252Z,1.80
2022-11-28T04:25:08.129Z,1.70
2022-11-28T04:27:39.751Z,1.70
2022-11-28T04:30:10.113Z,1.80
2022-11-28T04:32:42.338Z,1.70
2022-11-28T04:35:13.772Z,1.70
2022-11-28T04:37:41.186Z,1.70
2022-11-28T04:40:11.888Z,1.60
2022-11-28T04:43:04.123Z,1.70
2022-11-28T04:45:37.996Z,1.70
2022-11-28T04:48:05.788Z,1.70
2022-11-28T04:50:43.622Z,1.70
2022-11-28T04:53:37.417Z,1.70
2022-11-28T04:56:11.908Z,1.70
2022-11-28T04:58:43.941Z,1.60
2022-11-28T05:01:16.880Z,1.60
2022-11-28T05:03:44.217Z,1.60
2022-11-28T05:06:11.483Z,1.60
2022-11-28T05:08:38.542Z,1.60
2022-11-28T05:11:05.686Z,1.50
2022-11-28T05:13:32.678Z,1.60
2022-11-28T05:16:01.677Z,1.60
2022-11-28T05:18:28.742Z,1.60
2022-11-28T05:20:58.092Z,1.60
2022-11-28T05:23:25.071Z,1.50
2022-11-28T05:25:52.046Z,1.50
2022-11-28T05:28:19.094Z,1.40
2022-11-28T05:30:55.950Z,1.50
2022-11-28T05:33:22.920Z,1.50
2022-11-28T05:35:49.925Z,1.50
2022-11-28T05:38:16.966Z,1.40
2022-11-28T05:40:44.544Z,1.40
2022-11-28T05:43:12.216Z,1.40
2022-11-28T05:45:44.020Z,1.40
2022-11-28T05:48:11.661Z,1.40
2022-11-28T05:50:42.809Z,1.30
2022-11-28T05:53:10.843Z,1.40
2022-11-28T05:55:39.816Z,1.40
2022-11-28T05:58:06.861Z,1.30
2022-11-28T06:00:33.852Z,1.20
2022-11-28T06:03:01.650Z,1.20
2022-11-28T06:05:42.240Z,1.20
2022-11-28T06:08:12.602Z,1.20
2022-11-28T06:10:39.861Z,1.20
2022-11-28T06:13:06.954Z,1.20
2022-11-28T06:15:37.940Z,1.10
2022-11-28T06:18:05.961Z,1.10
2022-11-28T06:20:35.138Z,1.00
2022-11-28T06:23:02.146Z,1.00
2022-11-28T06:25:29.280Z,1.10
2022-11-28T06:27:56.287Z,1.00
2022-11-28T06:30:23.249Z,1.00
2022-11-28T06:32:50.223Z,1.10
2022-11-28T06:35:17.318Z,1.10
2022-11-28T06:37:44.421Z,1.00
2022-11-28T06:40:11.673Z,0.90
2022-11-28T06:42:38.862Z,0.90
2022-11-28T06:45:06.843Z,1.00
2022-11-28T06:47:33.909Z,1.00
2022-11-28T06:50:01.073Z,0.90
2022-11-28T06:52:28.997Z,0.90
2022-11-28T06:54:55.986Z,0.90
2022-11-28T06:57:23.098Z,0.80
2022-11-28T06:59:50.743Z,0.90
2022-11-28T07:02:17.917Z,1.00
2022-11-28T07:04:45.004Z,1.00
2022-11-28T07:07:16.317Z,1.00
2022-11-28T07:09:44.247Z,1.10
2022-11-28T07:12:11.505Z,1.00
2022-11-28T07:14:38.549Z,0.90
2022-11-28T07:17:05.892Z,0.90
2022-11-28T07:19:33.063Z,1.00
2022-11-28T07:22:00.302Z,0.90
2022-11-28T07:24:27.621Z,0.80
2022-11-28T07:26:54.699Z,0.90
2022-11-28T07:29:22.907Z,0.90
2022-11-28T07:31:50.660Z,0.90
2022-11-28T07:34:17.692Z,1.10
2022-11-28T07:36:44.692Z,1.10
2022-11-28T07:39:16.106Z,1.30
2022-11-28T07:41:43.098Z,1.30
2022-11-28T07:44:11.409Z,1.40
2022-11-28T07:46:39.091Z,2.00
2022-11-28T07:49:06.125Z,2.50
2022-11-28T07:51:34.247Z,2.60
2022-11-28T07:54:02.394Z,3.10
2022-11-28T07:56:57.305Z,3.80
2022-11-28T07:59:18.706Z,4.30
2022-11-28T08:01:45.952Z,4.90
2022-11-28T08:04:13.089Z,5.20
2022-11-28T08:06:41.918Z,4.90
2022-11-28T08:09:09.116Z,4.40
2022-11-28T08:11:36.338Z,3.90
2022-11-28T08:14:03.846Z,3.50
2022-11-28T08:16:31.649Z,3.20
2022-11-28T08:19:02.650Z,3.00
2022-11-28T08:21:32.204Z,2.80
2022-11-28T08:24:01.148Z,2.70
2022-11-28T08:26:30.952Z,2.60
2022-11-28T08:28:59.106Z,2.60
2022-11-28T08:31:31.653Z,2.50
2022-11-28T08:34:01.095Z,2.50
2022-11-28T08:36:29.292Z,2.30
2022-11-28T08:39:09.877Z,2.30
2022-11-28T08:41:44.095Z,2.50
2022-11-28T08:44:11.143Z,2.60
2022-11-28T08:46:38.146Z,2.70
2022-11-28T08:49:05.150Z,2.80
2022-11-28T08:51:32.420Z,2.80
2022-11-28T08:54:00.044Z,2.90
2022-11-28T08:56:28.127Z,2.80
2022-11-28T08:58:55.617Z,2.70
2022-11-28T09:01:26.888Z,2.70
2022-11-28T09:03:55.537Z,2.80
2022-11-28T09:06:23.533Z,2.90
2022-11-28T09:08:51.532Z,2.80
2022-11-28T09:11:20.622Z,2.80
2022-11-28T09:13:48.222Z,2.90
2022-11-28T09:16:15.898Z,3.10
2022-11-28T09:18:43.070Z,3.00
2022-11-28T09:21:13.131Z,3.00
2022-11-28T09:23:42.246Z,2.80
2022-11-28T09:26:29.948Z,2.90
2022-11-28T09:28:57.054Z,2.90
2022-11-28T09:31:24.213Z,3.00
2022-11-28T09:33:51.674Z,3.00
2022-11-28T09:36:20.825Z,3.00
2022-11-28T09:38:47.934Z,3.00
2022-11-28T09:41:35.955Z,2.90
2022-11-28T09:44:22.022Z,2.90
2022-11-28T09:46:52.624Z,2.90
2022-11-28T09:49:49.184Z,3.10
2022-11-28T09:52:42.073Z,3.20
2022-11-28T09:55:36.105Z,3.10
2022-11-28T09:58:15.690Z,3.30
2022-11-28T10:00:59.315Z,3.30
2022-11-28T10:03:48.584Z,3.50
2022-11-28T10:06:26.048Z,3.50
2022-11-28T10:09:02.157Z,3.60
2022-11-28T10:11:53.572Z,3.80
2022-11-28T10:14:43.648Z,3.90
2022-11-28T10:17:24.562Z,4.10
2022-11-28T10:20:04.611Z,4.80
2022-11-28T10:22:45.826Z,5.30
2022-11-28T10:25:28.552Z,5.30
2022-11-28T10:27:57.313Z,5.30
2022-11-28T10:30:27.313Z,5.50
2022-11-28T10:33:25.199Z,6.10
2022-11-28T10:36:00.671Z,7.50
2022-11-28T10:38:31.514Z,9.90
2022-11-28T10:41:01.986Z,11.00
2022-11-28T10:43:35.341Z,11.60
2022-11-28T10:46:31.488Z,11.70
2022-11-28T10:49:17.131Z,11.90
2022-11-28T10:52:08.764Z,11.80
2022-11-28T10:54:50.792Z,11.20
2022-11-28T10:57:24.119Z,11.60
2022-11-28T11:00:26.480Z,11.70
2022-11-28T11:03:00.408Z,11.40
2022-11-28T11:05:30.219Z,10.70
2022-11-28T11:08:16.052Z,10.90
2022-11-28T11:10:55.654Z,10.50
2022-11-28T11:13:34.474Z,10.70
2022-11-28T11:16:08.061Z,9.90
2022-11-28T11:18:38.075Z,9.30
2022-11-28T11:21:19.415Z,8.80
2022-11-28T11:23:47.923Z,8.50
2022-11-28T11:26:36.517Z,7.90
2022-11-28T11:29:05.565Z,7.90
2022-11-28T11:31:42.533Z,7.70
2022-11-28T11:34:21.338Z,7.70
2022-11-28T11:36:49.224Z,7.70
2022-11-28T11:39:25.732Z,7.60
2022-11-28T11:42:19.539Z,7.30
2022-11-28T11:44:46.539Z,7.00
2022-11-28T11:47:13.840Z,6.80
2022-11-28T11:49:50.805Z,6.60
2022-11-28T11:52:26.162Z,6.90
2022-11-28T11:54:58.255Z,7.10
2022-11-28T11:57:37.892Z,7.10
2022-11-28T12:00:19.844Z,7.20
2022-11-28T12:03:04.041Z,6.90
2022-11-28T12:08:54.545Z,7.00
2022-11-28T12:11:26.431Z,6.80
2022-11-28T12:13:54.081Z,6.70
2022-11-28T12:16:36.321Z,6.60
2022-11-28T12:19:16.168Z,6.70
2022-11-28T12:22:09.400Z,6.60
2022-11-28T12:24:54.603Z,6.40
2022-11-28T12:27:31.557Z,6.30
2022-11-28T12:30:16.324Z,6.30
2022-11-28T12:33:18.597Z,6.20
2022-11-28T12:36:14.099Z,6.20
2022-11-28T12:39:03.299Z,6.20
2022-11-28T12:42:09.327Z,6.30
2022-11-28T12:44:39.415Z,6.20
2022-11-28T12:47:35.304Z,6.00
2022-11-28T12:50:11.618Z,6.20
2022-11-28T12:52:53.905Z,6.10
2022-11-28T12:55:21.031Z,6.20
2022-11-28T12:58:08.229Z,6.10
2022-11-28T13:00:49.566Z,6.00
2022-11-28T13:03:28.764Z,5.90
2022-11-28T13:06:07.731Z,5.80
2022-11-28T13:08:48.913Z,5.80
2022-11-28T13:11:25.330Z,5.70
2022-11-28T13:14:01.504Z,5.60
2022-11-28T13:16:51.588Z,5.60
2022-11-28T13:19:40.248Z,5.60
2022-11-28T13:22:23.766Z,5.50
2022-11-28T13:25:08.078Z,5.40
2022-11-28T13:27:38.164Z,5.40
2022-11-28T13:30:23.708Z,5.20
2022-11-28T13:32:53.926Z,5.20
2022-11-28T13:35:21.682Z,5.30
2022-11-28T13:40:52.717Z,5.30
2022-11-28T13:43:53.772Z,5.30
2022-11-28T13:49:20.955Z,5.20
2022-11-28T13:51:48.801Z,5.10
2022-11-28T13:54:21.636Z,5.10
2022-11-28T13:57:09.688Z,5.00
2022-11-28T13:59:37.954Z,4.90
2022-11-28T14:02:41.893Z,4.90
2022-11-28T14:05:26.545Z,4.90
2022-11-28T14:07:56.073Z,4.90
2022-11-28T14:10:32.341Z,4.90
2022-11-28T14:13:09.791Z,5.00
2022-11-28T14:16:03.655Z,5.00
2022-11-28T14:18:58.239Z,5.00
2022-11-28T14:21:28.531Z,5.00
2022-11-28T14:23:58.534Z,5.00
2022-11-28T14:26:34.210Z,4.90
2022-11-28T14:29:03.203Z,4.90
2022-11-28T14:31:37.336Z,4.90
2022-11-28T14:34:31.386Z,4.90
2022-11-28T14:37:21.807Z,4.70
2022-11-28T14:39:51.495Z,4.80
2022-11-28T14:42:59.122Z,4.70
2022-11-28T14:45:33.583Z,4.80
2022-11-28T14:48:31.210Z,4.80
2022-11-28T14:51:02.185Z,4.80
2022-11-28T14:53:36.576Z,4.80
2022-11-28T14:56:16.220Z,4.70
2022-11-28T14:58:51.467Z,4.80
2022-11-28T15:01:35.758Z,4.70
2022-11-28T15:04:34.937Z,4.70
2022-11-28T15:07:05.200Z,4.80
2022-11-28T15:09:50.782Z,4.80
2022-11-28T15:12:37.585Z,4.70
2022-11-28T15:15:08.153Z,4.70
2022-11-28T15:17:35.551Z,4.60
2022-11-28T15:20:38.985Z,4.60
2022-11-28T15:23:06.134Z,4.60
2022-11-28T15:25:37.498Z,4.60
2022-11-28T15:28:20.378Z,4.60
2022-11-28T15:30:52.150Z,4.60
2022-11-28T15:33:21.139Z,4.60
2022-11-28T15:36:02.227Z,4.70
2022-11-28T15:38:31.252Z,4.70
2022-11-28T15:41:00.070Z,4.70
2022-11-28T15:43:27.760Z,4.80
2022-11-28T15:46:01.181Z,4.70
2022-11-28T15:48:40.225Z,4.70
2022-11-28T15:51:08.699Z,4.70
2022-11-28T15:53:42.304Z,4.80
2022-11-28T15:56:14.670Z,4.80
2022-11-28T15:58:43.809Z,4.80
2022-11-28T16:01:21.143Z,4.90
2022-11-28T16:03:54.613Z,4.90
2022-11-28T16:06:25.218Z,4.90
2022-11-28T16:09:06.259Z,4.90
2022-11-28T16:11:35.805Z,4.90
2022-11-28T16:14:09.326Z,4.90
2022-11-28T16:16:38.510Z,4.90
2022-11-28T16:19:09.045Z,4.90
2022-11-28T16:21:57.751Z,4.90
2022-11-28T16:24:27.437Z,4.90
2022-11-28T16:27:00.358Z,4.90
2022-11-28T16:29:36.440Z,4.80
2022-11-28T16:32:38.282Z,4.80
2022-11-28T16:35:07.366Z,4.80
2022-11-28T16:37:35.072Z,4.80
2022-11-28T16:40:23.597Z,4.90
2022-11-28T16:42:56.183Z,4.80
2022-11-28T16:45:29.872Z,4.80
2022-11-28T16:48:12.976Z,4.90
2022-11-28T16:51:10.383Z,4.90
2022-11-28T16:53:50.826Z,4.90
2022-11-28T16:56:30.198Z,4.80
2022-11-28T16:59:19.573Z,4.90
2022-11-28T17:01:49.848Z,4.90
2022-11-28T17:04:28.799Z,5.00
2022-11-28T17:07:06.189Z,4.90
2022-11-28T17:09:34.037Z,4.90
2022-11-28T17:12:15.511Z,4.90
2022-11-28T17:14:44.530Z,5.00
2022-11-28T17:17:16.379Z,5.00
2022-11-28T17:19:44.968Z,5.00
2022-11-28T17:22:17.139Z,5.00
2022-11-28T17:24:46.603Z,5.00
2022-11-28T17:27:15.112Z,5.00
2022-11-28T17:29:48.692Z,4.90
2022-11-28T17:32:16.459Z,4.90
2022-11-28T17:34:46.462Z,4.90
2022-11-28T17:37:14.312Z,5.00
2022-11-28T17:40:03.281Z,4.90
2022-11-28T17:42:31.877Z,4.90
2022-11-28T17:45:00.300Z,4.80
2022-11-28T17:47:28.197Z,4.90
2022-11-28T17:49:56.531Z,4.90
2022-11-28T17:52:30.695Z,4.90
2022-11-28T17:55:06.963Z,5.00
2022-11-28T17:57:36.193Z,5.00
2022-11-28T18:00:07.147Z,5.00
2022-11-28T18:02:42.330Z,4.90
2022-11-28T18:05:10.190Z,4.90
2022-11-28T18:07:40.994Z,4.90
2022-11-28T18:10:12.379Z,5.00
2022-11-28T18:12:40.112Z,4.90
2022-11-28T18:15:10.956Z,4.90
2022-11-28T18:17:38.945Z,4.90
2022-11-28T18:20:07.442Z,4.90
2022-11-28T18:22:35.479Z,4.80
2022-11-28T18:25:06.832Z,4.80
2022-11-28T18:27:35.438Z,4.70
2022-11-28T18:30:03.814Z,4.80
2022-11-28T18:32:32.861Z,4.70
2022-11-28T18:35:00.436Z,4.70
2022-11-28T18:37:28.613Z,4.70
2022-11-28T18:39:56.134Z,4.70
2022-11-28T18:42:24.303Z,4.60
2022-11-28T18:44:52.440Z,4.60
2022-11-28T18:47:20.315Z,4.60
2022-11-28T18:49:48.928Z,4.70
2022-11-28T18:52:17.877Z,4.70
2022-11-28T18:54:46.975Z,4.60
2022-11-28T18:57:15.236Z,4.60
2022-11-28T18:59:51.383Z,4.60
2022-11-28T19:02:22.983Z,4.60
2022-11-28T19:04:51.191Z,4.60
2022-11-28T19:07:19.438Z,4.50
2022-11-28T19:09:48.197Z,4.50
2022-11-28T19:12:20.280Z,4.50
2022-11-28T19:14:47.670Z,4.50
2022-11-28T19:17:16.803Z,4.50
2022-11-28T19:19:46.188Z,4.60
2022-11-28T19:22:14.450Z,4.40
2022-11-28T19:24:42.542Z,4.40
2022-11-28T19:27:14.293Z,4.40
2022-11-28T19:29:47.279Z,4.40
2022-11-28T19:32:17.096Z,4.40
2022-11-28T19:34:45.317Z,4.50
2022-11-28T19:37:16.387Z,4.40
2022-11-28T19:39:44.542Z,4.40
2022-11-28T19:42:13.403Z,4.30
2022-11-28T19:44:41.322Z,4.30
2022-11-28T19:47:12.165Z,4.30
2022-11-28T19:49:42.544Z,4.30
2022-11-28T19:52:10.827Z,4.30
2022-11-28T19:54:38.790Z,4.30
2022-11-28T19:57:11.031Z,4.30
2022-11-28T19:59:38.820Z,4.30
2022-11-28T20:02:08.281Z,4.30
2022-11-28T20:04:36.684Z,4.30
2022-11-28T20:07:11.083Z,4.20
2022-11-28T20:09:39.315Z,4.20
2022-11-28T20:12:07.592Z,4.20
2022-11-28T20:14:35.967Z,4.20
2022-11-28T20:17:05.052Z,4.10
2022-11-28T20:19:34.109Z,4.20
2022-11-28T20:22:02.224Z,4.00
2022-11-28T20:24:30.780Z,4.10
2022-11-28T20:26:59.950Z,4.10
2022-11-28T20:29:29.615Z,4.20
2022-11-28T20:31:58.963Z,4.10
2022-11-28T20:34:27.618Z,4.10
2022-11-28T20:36:55.232Z,4.20
2022-11-28T20:39:25.114Z,4.20
2022-11-28T20:41:54.220Z,4.20
2022-11-28T20:44:23.820Z,4.20
2022-11-28T20:46:51.992Z,4.20
2022-11-28T20:49:19.813Z,4.20
2022-11-28T20:51:47.689Z,4.20
2022-11-28T20:54:17.855Z,4.10
2022-11-28T20:57:19.202Z,4.10
2022-11-28T20:59:34.157Z,4.00
2022-11-28T21:02:01.796Z,4.00
2022-11-28T21:04:29.774Z,4.10
2022-11-28T21:06:57.569Z,4.00
2022-11-28T21:09:24.932Z,4.00
2022-11-28T21:12:00.766Z,4.00
2022-11-28T21:14:29.472Z,4.00
2022-11-28T21:16:58.569Z,4.00
2022-11-28T21:19:26.454Z,4.00
2022-11-28T21:21:53.983Z,4.00
2022-11-28T21:24:21.661Z,4.00
2022-11-28T21:26:54.001Z,4.00
2022-11-28T21:29:23.242Z,4.10
2022-11-28T21:31:50.889Z,4.00
2022-11-28T21:34:19.407Z,4.00
2022-11-28T21:36:47.387Z,4.00
2022-11-28T21:39:17.268Z,4.00
2022-11-28T21:41:44.758Z,4.00
2022-11-28T21:44:11.760Z,4.00
2022-11-28T21:46:38.899Z,4.00
2022-11-28T21:49:13.817Z,4.00
2022-11-28T21:51:41.137Z,4.10
2022-11-28T21:54:12.473Z,3.90
2022-11-28T21:56:40.095Z,4.00
2022-11-28T21:59:07.417Z,4.10
2022-11-28T22:01:34.706Z,4.00
2022-11-28T22:04:03.147Z,4.00
2022-11-28T22:06:31.885Z,4.10
2022-11-28T22:09:03.268Z,4.10
2022-11-28T22:11:34.271Z,4.10
2022-11-28T22:14:01.601Z,4.10
2022-11-28T22:16:29.688Z,4.10
2022-11-28T22:18:59.940Z,4.10
2022-11-28T22:24:14.509Z,4.10
2022-11-28T22:26:41.562Z,4.00
2022-11-28T22:29:08.744Z,4.00
2022-11-28T22:31:37.120Z,4.00
2022-11-28T22:34:04.655Z,4.00
2022-11-28T22:36:33.560Z,3.90
2022-11-28T22:39:01.114Z,3.90
2022-11-28T22:41:29.748Z,3.90
2022-11-28T22:44:01.025Z,3.80
2022-11-28T22:46:30.625Z,3.80
2022-11-28T22:49:00.461Z,3.80
2022-11-28T22:51:28.940Z,3.90
2022-11-28T22:53:57.888Z,3.90
2022-11-28T22:56:27.752Z,3.90
2022-11-28T22:58:54.837Z,3.90
2022-11-28T23:01:29.268Z,3.90
2022-11-28T23:03:57.268Z,4.00
2022-11-28T23:06:31.047Z,4.00
2022-11-28T23:08:59.737Z,3.90
2022-11-28T23:11:30.432Z,3.90
2022-11-28T23:13:59.352Z,3.90
2022-11-28T23:16:33.022Z,3.90
2022-11-28T23:19:03.847Z,3.80
2022-11-28T23:21:35.860Z,3.70
2022-11-28T23:24:04.749Z,3.70
2022-11-28T23:26:32.924Z,3.60
2022-11-28T23:29:01.495Z,3.70
2022-11-28T23:31:31.562Z,3.70
2022-11-28T23:34:00.123Z,3.70
2022-11-28T23:36:38.447Z,3.60
2022-11-28T23:39:17.582Z,3.60
2022-11-28T23:41:45.166Z,3.60
2022-11-28T23:44:13.366Z,3.50
2022-11-28T23:46:41.043Z,3.60
2022-11-28T23:49:08.628Z,3.60
2022-11-28T23:51:36.403Z,3.50
2022-11-28T23:54:03.731Z,3.50
2022-11-28T23:56:34.225Z,3.50
2022-11-28T23:59:03.427Z,3.40
